Terminal Aerodrome Forecast
Issued by NWS Brownsville, TX

Home | Current Version | Previous Version | Text Only | Print | Product List | Glossary On
Versions: 1 2 3 4 5 6 7 8 9 10 11 12 13 14 15 16
000
FTUS44 KBRO 282300
TAFMFE
TAF
KMFE 282327Z 2900/2924 05010KT P6SM SCT050 SCT150
     FM290500 VRB04KT P6SM SCT030 BKN050
     FM291200 VRB04KT P6SM VCSH SCT030 BKN200
      TEMPO 2912/2916 5SM RA BR BKN025
     FM291600 18006KT P6SM VCSH SCT030 BKN100
      TEMPO 2918/2922 3SM TSRA BR BKN020CB OVC150=

USA.gov is the U.S. government's official web portal to all federal, state and local government web resources and services.